Time;durP1;ratioP1;P1;durP2;ratioP2;P2;SDS_P1;SDS_P2;PMS_P1;PMS_P2;Temp;Humidity;BMP_temperature;BMP_pressure;BME280_temperature;BME280_humidity;BME280_pressure;Samples;Min_cycle;Max_cycle;Signal;HPM_P1;HPM_P2
2021/12/31 00:00:01;;;;;;;25.90;21.77;;;;;;;4.79;83.30;102108.53;4951273;29;20073;-81
2021/12/31 00:02:27;;;;;;;39.38;21.77;;;;;;;4.85;83.27;102134.59;4950865;29;20114;-82
2021/12/31 00:04:57;;;;;;;25.05;20.85;;;;;;;4.74;83.66;102100.81;4950779;29;20056;-82
2021/12/31 00:07:24;;;;;;;51.10;22.67;;;;;;;4.71;83.20;102095.69;4951786;28;20504;-83
2021/12/31 00:09:59;;;;;;;46.72;23.60;;;;;;;4.60;83.28;102087.38;4950789;29;20054;-80
2021/12/31 00:12:29;;;;;;;;;;;;;;;4.89;83.97;102139.66;4951929;29;20051;-82
2021/12/31 00:14:56;;;;;;;29.83;21.10;;;;;;;4.95;83.30;102148.22;4950845;29;19923;-82
2021/12/31 00:17:24;;;;;;;49.92;23.38;;;;;;;3.59;83.06;101932.75;4950405;29;20106;-80
2021/12/31 00:20:00;;;;;;;34.65;22.60;;;;;;;3.80;82.79;101972.22;4967297;28;20113;-83
2021/12/31 00:25:11;;;;;;;32.80;22.20;;;;;;;4.05;82.97;102027.28;4951993;28;20090;-83
2021/12/31 00:27:40;;;;;;;29.35;20.77;;;;;;;4.44;83.65;102093.25;4951356;29;20134;-81
2021/12/31 00:30:09;;;;;;;38.20;22.57;;;;;;;4.87;83.64;102162.53;4952751;28;20043;-83
2021/12/31 00:32:35;;;;;;;32.35;21.60;;;;;;;4.81;83.43;102160.19;4955006;29;20138;-81
2021/12/31 00:35:04;;;;;;;39.45;21.55;;;;;;;4.50;83.00;102100.88;4954723;29;20286;-82
2021/12/31 00:37:34;;;;;;;20.77;18.63;;;;;;;4.82;83.35;102167.13;4954564;29;20171;-83
2021/12/31 00:40:06;;;;;;;43.97;22.63;;;;;;;4.54;83.33;102120.03;4955694;28;20521;-82
2021/12/31 00:42:32;;;;;;;31.52;21.17;;;;;;;4.81;83.62;102154.91;4955160;28;20677;-83
2021/12/31 00:44:59;;;;;;;22.90;18.83;;;;;;;3.63;83.17;101975.50;4953905;29;20051;-82
2021/12/31 00:47:26;;;;;;;31.38;20.40;;;;;;;3.25;83.26;101916.53;4970593;28;20066;-82
2021/12/31 00:49:53;;;;;;;25.43;18.53;;;;;;;4.65;83.80;102149.38;4955271;28;20385;-83
2021/12/31 00:52:22;;;;;;;24.00;16.52;;;;;;;3.91;82.98;102017.34;4955473;28;20098;-82
2021/12/31 00:54:48;;;;;;;23.83;17.15;;;;;;;3.03;83.12;101888.47;4955266;28;20503;-81
2021/12/31 00:57:15;;;;;;;22.42;16.67;;;;;;;3.68;82.64;101993.69;4955882;28;20130;-83
2021/12/31 00:59:44;;;;;;;17.75;15.82;;;;;;;4.70;82.81;102170.25;4953971;29;20086;-83
2021/12/31 01:02:12;;;;;;;17.98;15.27;;;;;;;3.97;83.17;102053.03;4955445;28;20315;-84
2021/12/31 01:04:43;;;;;;;19.17;16.90;;;;;;;4.52;83.13;102147.31;4954137;29;20471;-82
2021/12/31 01:07:09;;;;;;;17.50;15.70;;;;;;;4.71;83.25;102174.63;4954297;29;20085;-80
2021/12/31 01:09:36;;;;;;;19.55;17.38;;;;;;;4.73;83.56;102172.75;4945632;29;20099;-82
2021/12/31 01:12:06;;;;;;;25.60;15.98;;;;;;;4.76;83.05;102183.19;4919786;29;20055;-83
2021/12/31 01:14:40;;;;;;;18.40;15.20;;;;;;;4.49;82.70;102146.53;4936491;29;20138;-84
2021/12/31 01:17:15;;;;;;;21.27;15.90;;;;;;;3.60;82.88;102005.34;4935823;29;20063;-82
2021/12/31 01:19:47;;;;;;;20.48;17.30;;;;;;;3.90;82.62;102049.75;4934178;29;20467;-82
2021/12/31 01:22:30;;;;;;;20.70;17.52;;;;;;;3.43;81.99;101984.13;4950688;29;20058;-81
2021/12/31 01:24:57;;;;;;;27.30;18.30;;;;;;;4.39;82.33;102133.75;4950112;29;20115;-80
2021/12/31 01:27:27;;;;;;;22.45;19.13;;;;;;;4.09;82.54;102112.16;4950935;29;20521;-83
2021/12/31 01:29:56;;;;;;;22.65;18.08;;;;;;;4.32;82.58;102141.06;4950696;29;20064;-83
2021/12/31 01:32:24;;;;;;;33.97;20.17;;;;;;;3.94;81.96;102088.16;4950438;29;20177;-83
2021/12/31 01:34:51;;;;;;;29.73;20.30;;;;;;;4.50;82.54;102185.03;4950107;29;20064;-83
2021/12/31 01:37:17;;;;;;;27.40;20.45;;;;;;;4.12;82.05;102112.88;4935983;29;20510;-83
2021/12/31 01:39:44;;;;;;;30.63;20.27;;;;;;;4.56;82.48;102196.25;4950600;29;20173;-82
2021/12/31 01:42:17;;;;;;;27.92;19.67;;;;;;;4.50;82.66;102195.56;4949522;28;20139;-82
2021/12/31 01:44:54;;;;;;;25.48;20.52;;;;;;;4.54;82.88;102201.56;4950018;29;20059;-82
2021/12/31 01:47:22;;;;;;;27.52;20.63;;;;;;;4.36;83.22;102174.19;4936139;29;20071;-82
2021/12/31 01:49:58;;;;;;;26.83;20.67;;;;;;;4.55;83.34;102200.66;4935094;29;20052;-83
2021/12/31 01:52:25;;;;;;;28.52;19.63;;;;;;;4.42;83.22;102175.75;4935378;29;20059;-82
2021/12/31 01:54:52;;;;;;;28.02;18.55;;;;;;;4.35;82.66;102159.34;4949971;29;20055;-83
2021/12/31 01:57:20;;;;;;;28.33;19.10;;;;;;;4.56;82.76;102204.13;4950507;29;20044;-82
2021/12/31 01:59:48;;;;;;;29.60;18.45;;;;;;;3.84;82.86;102084.16;4950173;29;20052;-82
2021/12/31 02:02:15;;;;;;;25.77;18.48;;;;;;;3.82;83.04;102080.72;4946565;29;20389;-83
2021/12/31 02:04:42;;;;;;;41.50;20.37;;;;;;;4.06;82.82;102127.09;4946279;29;20067;-83
2021/12/31 02:07:11;;;;;;;33.05;18.75;;;;;;;4.43;83.00;102186.19;4930632;29;20059;-83
2021/12/31 02:09:45;;;;;;;23.33;18.60;;;;;;;4.42;83.58;102192.38;4931572;29;20117;-82
2021/12/31 02:12:14;;;;;;;30.95;19.40;;;;;;;4.41;83.58;102181.91;4930181;29;20424;-83
2021/12/31 02:14:40;;;;;;;32.53;19.67;;;;;;;3.70;83.74;102073.31;4930510;29;20086;-83
2021/12/31 02:17:09;;;;;;;24.37;18.80;;;;;;;4.15;83.67;102143.44;4931348;29;20217;-82
2021/12/31 02:19:37;;;;;;;34.13;17.93;;;;;;;4.35;83.57;102171.63;4930110;29;20141;-83
2021/12/31 02:22:04;;;;;;;48.17;19.55;;;;;;;4.46;83.50;102190.47;4930200;29;20146;-82
2021/12/31 02:24:31;;;;;;;42.27;20.07;;;;;;;4.31;83.85;102168.25;4929570;29;20495;-83
2021/12/31 02:26:58;;;;;;;39.00;19.07;;;;;;;4.24;83.70;102151.00;4929941;29;20465;-83
2021/12/31 02:29:25;;;;;;;50.10;20.63;;;;;;;4.35;84.12;102155.84;4931513;29;20044;-83
2021/12/31 02:31:54;;;;;;;33.80;18.23;;;;;;;4.34;83.55;102154.97;4929785;29;20051;-84
2021/12/31 02:34:23;;;;;;;44.47;18.13;;;;;;;4.32;84.19;102141.06;4931025;29;20150;-82
2021/12/31 02:36:52;;;;;;;61.05;19.20;;;;;;;4.20;83.66;102116.09;4945779;29;20164;-84
2021/12/31 02:39:18;;;;;;;52.37;19.77;;;;;;;4.35;84.01;102146.19;4929860;29;20047;-84
2021/12/31 02:41:45;;;;;;;28.55;17.90;;;;;;;4.25;83.96;102137.78;4931112;29;20048;-84
2021/12/31 02:44:11;;;;;;;56.57;18.13;;;;;;;4.23;83.73;102125.63;4929925;29;20135;-84
2021/12/31 02:46:38;;;;;;;32.92;18.38;;;;;;;4.52;83.43;102189.41;4929677;29;20502;-82
2021/12/31 02:49:05;;;;;;;44.57;18.33;;;;;;;4.09;83.97;102109.50;4930814;29;20051;-83
2021/12/31 02:51:31;;;;;;;38.60;17.30;;;;;;;4.34;83.64;102159.38;4929833;29;20086;-83
2021/12/31 02:53:59;;;;;;;36.43;19.97;;;;;;;4.38;83.53;102156.59;4929474;29;20070;-83
2021/12/31 02:56:25;;;;;;;30.13;17.95;;;;;;;4.50;83.23;102178.94;4930662;29;20059;-83
2021/12/31 02:58:52;;;;;;;28.33;18.83;;;;;;;3.96;83.56;102088.09;4930606;29;20071;-83
2021/12/31 03:01:25;;;;;;;39.90;18.95;;;;;;;4.13;83.27;102127.75;4930520;29;20063;-84
2021/12/31 03:03:55;;;;;;;35.53;19.60;;;;;;;4.33;83.55;102158.53;4928962;29;20059;-83
2021/12/31 03:06:23;;;;;;;36.20;19.13;;;;;;;4.37;83.60;102165.41;4929041;29;20075;-83
2021/12/31 03:08:56;;;;;;;47.47;19.20;;;;;;;3.64;83.57;102043.72;4929184;29;20051;-84
2021/12/31 03:11:23;;;;;;;30.92;18.50;;;;;;;3.53;83.92;102019.63;4930430;29;20143;-82
2021/12/31 03:13:54;;;;;;;26.48;18.35;;;;;;;3.95;84.14;102095.09;4945376;29;20048;-83
2021/12/31 03:16:22;;;;;;;26.52;17.38;;;;;;;4.35;84.16;102154.06;4944976;29;20051;-83
2021/12/31 03:18:50;;;;;;;33.45;18.95;;;;;;;4.45;84.24;102155.44;4930442;29;20469;-83
2021/12/31 03:21:23;;;;;;;35.38;18.50;;;;;;;4.22;84.11;102116.00;4945259;29;20119;-82
2021/12/31 03:23:52;;;;;;;86.50;20.05;;;;;;;4.00;83.63;102077.41;4929506;29;20043;-82
2021/12/31 03:26:20;;;;;;;61.03;18.60;;;;;;;4.26;83.48;102122.88;4944885;29;20062;-85
2021/12/31 03:28:48;;;;;;;48.17;17.00;;;;;;;4.49;83.63;102164.94;4944795;29;20062;-82
2021/12/31 03:31:15;;;;;;;54.20;17.50;;;;;;;4.50;83.81;102171.88;4930679;29;20173;-83
2021/12/31 03:33:45;;;;;;;53.00;17.50;;;;;;;4.13;84.12;102108.50;4944751;29;20138;-83
2021/12/31 03:36:11;;;;;;;41.72;17.83;;;;;;;3.29;83.97;101966.25;4944745;29;20106;-83
2021/12/31 03:38:38;;;;;;;45.03;18.98;;;;;;;3.59;84.40;102011.53;4932902;29;20058;-84
2021/12/31 03:41:05;;;;;;;30.65;17.02;;;;;;;4.52;84.17;102163.09;4940980;29;20087;-84
2021/12/31 03:43:31;;;;;;;29.60;16.42;;;;;;;4.30;84.21;102121.84;4948493;29;20088;-84
2021/12/31 03:46:00;;;;;;;21.23;16.42;;;;;;;3.49;83.93;101986.50;4946018;29;20056;-84
2021/12/31 03:48:30;;;;;;;22.88;18.30;;;;;;;3.46;83.94;101976.13;4942234;29;20047;-82
2021/12/31 03:50:56;;;;;;;21.00;17.65;;;;;;;4.53;83.60;102151.66;4949419;29;20075;-85
2021/12/31 03:53:23;;;;;;;27.67;18.50;;;;;;;4.33;83.72;102116.47;4947155;29;20052;-81
2021/12/31 03:55:51;;;;;;;59.85;18.20;;;;;;;3.39;83.47;101967.59;4945265;29;20075;-84
2021/12/31 03:58:18;;;;;;;39.03;17.70;;;;;;;4.00;82.95;102077.41;4944439;29;20056;-85
2021/12/31 04:00:46;;;;;;;31.33;18.70;;;;;;;4.46;83.06;102143.97;4944697;29;20485;-82
2021/12/31 04:03:13;;;;;;;39.53;18.50;;;;;;;4.51;83.50;102151.69;4929801;29;20302;-82
2021/12/31 04:05:41;;;;;;;20.20;16.83;;;;;;;3.55;83.87;101982.81;4931379;29;20062;-83
2021/12/31 04:08:10;;;;;;;20.02;16.75;;;;;;;3.27;83.86;101914.72;4948358;29;20082;-82
2021/12/31 04:10:37;;;;;;;23.45;18.25;;;;;;;3.25;83.15;101919.16;4948371;29;20126;-84
2021/12/31 04:13:04;;;;;;;29.38;16.88;;;;;;;3.19;83.25;101900.13;4932459;29;20455;-82
2021/12/31 04:15:31;;;;;;;27.45;18.60;;;;;;;4.76;83.01;102156.00;4932600;29;20098;-84
2021/12/31 04:17:57;;;;;;;34.92;17.80;;;;;;;3.64;83.18;101975.44;4932450;29;20048;-84
2021/12/31 04:20:34;;;;;;;21.73;16.75;;;;;;;4.81;83.05;102160.19;4932500;29;20138;-83
2021/12/31 04:23:11;;;;;;;31.92;17.00;;;;;;;4.82;83.02;102167.13;4932432;29;20115;-82
2021/12/31 04:25:38;;;;;;;30.77;17.20;;;;;;;4.83;83.15;102173.25;4932146;29;20377;-83
2021/12/31 04:28:05;;;;;;;68.13;17.30;;;;;;;4.84;82.50;102165.31;4932165;29;20055;-83
2021/12/31 04:30:33;;;;;;;33.67;16.48;;;;;;;4.84;82.18;102170.56;4933369;29;20134;-83
2021/12/31 04:33:00;;;;;;;41.97;17.35;;;;;;;4.72;82.59;102160.53;4933197;29;20496;-81
2021/12/31 04:35:27;;;;;;;18.60;14.48;;;;;;;4.60;82.75;102146.09;4931789;29;20511;-82
2021/12/31 04:37:54;;;;;;;24.90;16.15;;;;;;;4.38;82.61;102113.66;4931776;29;20114;-82
2021/12/31 04:40:20;;;;;;;58.30;16.25;;;;;;;4.60;82.90;102161.03;4933365;29;20086;-83
2021/12/31 04:42:48;;;;;;;29.42;16.42;;;;;;;4.52;82.94;102142.06;4932049;29;20102;-83
2021/12/31 04:45:15;;;;;;;41.67;16.83;;;;;;;4.32;82.72;102119.13;4931836;29;20050;-84
2021/12/31 04:47:42;;;;;;;38.70;15.05;;;;;;;4.37;82.87;102127.72;4932972;29;20222;-83
2021/12/31 04:50:09;;;;;;;20.23;14.20;;;;;;;4.49;82.93;102143.88;4932816;29;20056;-84
2021/12/31 04:52:39;;;;;;;57.17;17.65;;;;;;;4.61;82.42;102176.75;4931646;29;20062;-82
2021/12/31 04:55:07;;;;;;;62.88;17.17;;;;;;;4.48;82.75;102157.94;4931121;29;20050;-82
2021/12/31 04:57:33;;;;;;;31.58;15.50;;;;;;;4.35;82.18;102146.19;4932105;29;20062;-82
2021/12/31 05:00:00;;;;;;;19.83;14.68;;;;;;;4.11;82.38;102099.81;4946689;29;20570;-84
2021/12/31 05:02:27;;;;;;;24.95;15.57;;;;;;;4.33;82.79;102152.41;4930476;29;20547;-82
2021/12/31 05:04:53;;;;;;;49.20;17.55;;;;;;;4.49;82.81;102175.44;4942660;29;20047;-83
2021/12/31 05:07:25;;;;;;;67.22;17.13;;;;;;;4.13;82.89;102116.38;4930635;29;20464;-82
2021/12/31 05:09:51;;;;;;;40.10;16.45;;;;;;;4.48;82.68;102173.72;4946122;29;20083;-82
2021/12/31 05:12:24;;;;;;;25.33;15.32;;;;;;;3.81;82.60;102066.75;4932111;29;20488;-82
2021/12/31 05:14:51;;;;;;;43.83;16.38;;;;;;;4.40;82.20;102165.28;4930939;29;20130;-82
2021/12/31 05:17:17;;;;;;;39.95;15.75;;;;;;;4.45;82.96;102176.47;4930478;29;20463;-82
2021/12/31 05:19:45;;;;;;;49.35;18.15;;;;;;;3.71;82.46;102048.72;4929883;29;20102;-83
2021/12/31 05:22:11;;;;;;;31.23;16.92;;;;;;;4.43;82.73;102174.81;4930284;29;20471;-84
2021/12/31 05:24:39;;;;;;;50.42;16.30;;;;;;;4.39;82.64;102175.84;4930582;29;20048;-83
2021/12/31 05:27:07;;;;;;;47.78;17.45;;;;;;;4.21;82.61;102148.47;4930250;29;20337;-82
2021/12/31 05:29:35;;;;;;;29.90;16.50;;;;;;;4.19;82.86;102156.41;4929985;29;20480;-84
2021/12/31 05:32:02;;;;;;;27.48;15.98;;;;;;;4.33;82.66;102181.34;4929723;29;20095;-82
2021/12/31 05:34:29;;;;;;;60.75;16.83;;;;;;;4.31;82.98;102176.13;4929682;29;20134;-85
2021/12/31 05:36:56;;;;;;;38.35;17.58;;;;;;;3.16;83.28;101978.97;4945896;29;20098;-82
2021/12/31 05:39:25;;;;;;;60.22;17.17;;;;;;;4.40;83.29;102190.72;4946190;29;20091;-83
2021/12/31 05:41:52;;;;;;;51.30;18.85;;;;;;;4.41;82.48;102185.38;4945876;29;20147;-82
2021/12/31 05:44:20;;;;;;;43.42;19.95;;;;;;;4.07;82.62;102139.31;4945621;29;20051;-83
2021/12/31 05:46:49;;;;;;;25.95;17.05;;;;;;;4.34;82.88;102189.16;4931133;29;20484;-82
2021/12/31 05:49:17;;;;;;;51.50;20.23;;;;;;;4.25;82.96;102173.75;4946229;29;20435;-82
2021/12/31 05:51:44;;;;;;;36.28;18.17;;;;;;;3.85;82.96;102104.25;4946193;29;20059;-83
2021/12/31 05:54:10;;;;;;;44.33;18.90;;;;;;;4.25;83.43;102171.97;4931259;29;20055;-83
2021/12/31 05:56:37;;;;;;;22.52;17.98;;;;;;;4.31;83.52;102183.16;4945849;29;20329;-83
2021/12/31 05:59:06;;;;;;;34.45;19.33;;;;;;;4.21;83.29;102166.88;4933947;29;20283;-83
2021/12/31 06:01:33;;;;;;;20.02;17.80;;;;;;;3.83;82.66;102095.56;4950114;29;20051;-85
2021/12/31 06:03:59;;;;;;;19.43;17.37;;;;;;;4.04;82.54;102130.72;4937290;29;20478;-83
2021/12/31 06:06:26;;;;;;;20.70;17.70;;;;;;;3.37;82.33;102006.22;4948580;29;20048;-83
2021/12/31 06:08:53;;;;;;;27.15;19.90;;;;;;;4.45;82.03;102183.50;4933243;29;20078;-83
2021/12/31 06:11:19;;;;;;;21.63;17.20;;;;;;;4.41;81.24;102185.38;4930276;29;20066;-83
2021/12/31 06:13:49;;;;;;;34.88;17.58;;;;;;;3.85;81.09;102099.00;4929587;29;20143;-82
2021/12/31 06:16:16;;;;;;;19.23;17.25;;;;;;;4.14;81.17;102157.50;4929615;29;20058;-84
2021/12/31 06:18:43;;;;;;;18.75;16.85;;;;;;;4.23;81.06;102184.31;4930885;29;20411;-82
2021/12/31 06:21:10;;;;;;;19.23;17.08;;;;;;;3.94;81.03;102138.06;4929080;29;20051;-82
2021/12/31 06:23:36;;;;;;;18.00;16.08;;;;;;;4.22;80.97;102192.25;4930812;29;20477;-84
2021/12/31 06:26:25;;;;;;;18.95;16.88;;;;;;;3.45;80.67;102052.31;4929338;29;20639;-82
2021/12/31 06:28:52;;;;;;;18.33;16.45;;;;;;;3.92;80.34;102142.53;4929041;29;20138;-84
2021/12/31 06:31:18;;;;;;;17.48;15.68;;;;;;;4.22;80.53;102205.38;4929347;29;20147;-82
2021/12/31 06:33:45;;;;;;;17.38;15.48;;;;;;;3.49;79.97;102075.78;4930779;29;20058;-82
2021/12/31 06:36:11;;;;;;;16.92;15.15;;;;;;;4.19;80.31;102202.88;4929269;29;20504;-83
2021/12/31 06:38:38;;;;;;;16.17;14.45;;;;;;;3.66;80.21;102114.56;4928806;29;20506;-82
2021/12/31 06:41:05;;;;;;;16.48;14.73;;;;;;;4.00;79.92;102177.25;4930071;29;20115;-83
2021/12/31 06:43:31;;;;;;;15.90;14.25;;;;;;;3.66;79.48;102121.59;4925784;29;20540;-86
2021/12/31 06:45:58;;;;;;;16.10;14.40;;;;;;;3.99;79.98;102170.28;4919385;29;20058;-83
2021/12/31 06:48:27;;;;;;;16.25;14.65;;;;;;;4.04;79.34;102196.41;4910970;29;20067;-84
2021/12/31 06:50:54;;;;;;;17.35;15.23;;;;;;;3.12;79.58;102037.69;4925551;29;20167;-82
2021/12/31 06:53:20;;;;;;;16.00;14.35;;;;;;;4.05;79.21;102191.13;4910958;29;20158;-83
2021/12/31 06:55:47;;;;;;;17.45;15.60;;;;;;;3.89;79.64;102175.94;4925458;29;20044;-83
2021/12/31 06:58:14;;;;;;;16.38;14.60;;;;;;;4.12;79.40;102211.91;4931045;29;20044;-83
2021/12/31 07:00:41;;;;;;;16.25;14.68;;;;;;;3.56;79.78;102119.28;4943623;29;20076;-86
2021/12/31 07:03:11;;;;;;;16.15;13.95;;;;;;;4.19;79.58;102218.66;4940951;29;20088;-86
2021/12/31 07:05:43;;;;;;;17.33;15.52;;;;;;;4.02;78.81;102208.75;4925858;29;20437;-84
2021/12/31 07:08:10;;;;;;;17.17;14.88;;;;;;;3.35;79.11;102093.78;4925536;29;20147;-85
2021/12/31 07:10:37;;;;;;;16.50;14.93;;;;;;;3.60;78.95;102126.16;4927472;29;20646;-82
2021/12/31 07:13:11;;;;;;;17.42;15.63;;;;;;;3.93;78.95;102188.94;4928904;29;20091;-83
2021/12/31 07:15:44;;;;;;;17.13;15.33;;;;;;;3.96;78.69;102201.94;4928007;29;20126;-81
2021/12/31 07:18:11;;;;;;;17.15;15.23;;;;;;;4.01;77.95;102215.78;4943659;29;20560;-84
2021/12/31 07:20:38;;;;;;;16.13;14.45;;;;;;;4.04;77.84;102241.09;4929395;29;20055;-82
2021/12/31 07:23:07;;;;;;;17.35;15.55;;;;;;;4.02;78.85;102243.75;4929131;29;20739;-82
2021/12/31 07:25:34;;;;;;;17.90;15.82;;;;;;;3.87;78.54;102227.69;4944533;29;20058;-84
2021/12/31 07:28:01;;;;;;;17.17;15.48;;;;;;;2.97;78.10;102088.09;4944226;29;20159;-82
2021/12/31 07:30:28;;;;;;;18.07;16.20;;;;;;;2.83;78.26;102071.94;4928524;29;20060;-83
2021/12/31 07:32:57;;;;;;;17.55;15.85;;;;;;;3.85;78.63;102251.38;4944095;29;20079;-82
2021/12/31 07:35:24;;;;;;;17.43;15.57;;;;;;;3.90;78.97;102275.72;4944001;29;20146;-83
2021/12/31 07:37:55;;;;;;;18.30;16.40;;;;;;;3.80;78.59;102248.06;4943559;29;20496;-83
2021/12/31 07:40:37;;;;;;;18.90;16.90;;;;;;;3.90;78.89;102259.94;4926333;29;20317;-82
2021/12/31 07:43:08;;;;;;;19.77;17.73;;;;;;;3.92;78.98;102267.78;4924160;29;20059;-83
2021/12/31 07:45:35;;;;;;;19.70;17.57;;;;;;;3.19;78.84;102144.19;4944414;29;20051;-83
2021/12/31 07:48:03;;;;;;;19.60;17.50;;;;;;;3.91;78.26;102264.31;4944575;29;20048;-82
2021/12/31 07:50:30;;;;;;;20.00;17.55;;;;;;;3.22;77.86;102167.69;4929673;29;20118;-84
2021/12/31 07:52:57;;;;;;;18.85;16.17;;;;;;;3.22;78.30;102172.09;4944551;29;20506;-83
2021/12/31 07:55:24;;;;;;;19.60;16.67;;;;;;;3.04;78.34;102121.09;4944610;29;20103;-83
2021/12/31 07:57:51;;;;;;;22.70;18.90;;;;;;;3.75;78.37;102242.09;4945151;29;20059;-83
2021/12/31 08:00:18;;;;;;;18.63;16.57;;;;;;;3.92;78.39;102268.66;4930167;29;20082;-84
2021/12/31 08:02:44;;;;;;;20.23;17.13;;;;;;;3.41;78.32;102207.31;4929772;29;20098;-83
2021/12/31 08:05:11;;;;;;;19.77;16.65;;;;;;;3.70;78.79;102242.25;4944290;29;20057;-82
2021/12/31 08:07:40;;;;;;;18.37;16.43;;;;;;;3.76;78.98;102241.19;4943095;29;20052;-83
2021/12/31 08:10:07;;;;;;;18.55;16.60;;;;;;;3.78;78.30;102239.38;4943498;29;20335;-84
2021/12/31 08:12:54;;;;;;;18.17;16.37;;;;;;;3.97;78.41;102279.84;4935603;29;20062;-82
2021/12/31 08:15:21;;;;;;;19.17;16.85;;;;;;;3.86;78.94;102247.84;4945188;29;20075;-84
2021/12/31 08:17:47;;;;;;;19.55;16.67;;;;;;;3.89;78.66;102258.25;4931625;29;20087;-83
2021/12/31 08:20:14;;;;;;;18.17;16.27;;;;;;;4.06;78.67;102282.16;4945700;29;20492;-82
2021/12/31 08:22:40;;;;;;;17.90;16.00;;;;;;;4.04;78.96;102278.72;4929694;29;20044;-81
2021/12/31 08:25:07;;;;;;;20.00;17.02;;;;;;;4.09;78.91;102269.84;4927843;29;20043;-84
2021/12/31 08:27:38;;;;;;;17.23;15.43;;;;;;;3.06;79.03;102086.91;4927954;29;20381;-83
2021/12/31 08:30:07;;;;;;;20.33;17.88;;;;;;;4.12;79.35;102253.94;4925984;29;20342;-81
2021/12/31 08:32:53;;;;;;;19.55;17.13;;;;;;;4.35;79.05;102285.53;4941435;29;20056;-82
2021/12/31 08:35:19;;;;;;;20.73;17.25;;;;;;;4.16;79.28;102240.66;4925969;29;20055;-82
2021/12/31 08:37:46;;;;;;;17.75;15.88;;;;;;;4.44;78.72;102277.34;4927944;29;20519;-81
2021/12/31 08:40:13;;;;;;;17.63;15.38;;;;;;;4.56;78.87;102294.41;4942657;29;20500;-82
2021/12/31 08:42:40;;;;;;;17.50;15.55;;;;;;;4.61;79.16;102283.72;4928062;29;20093;-83
2021/12/31 08:45:07;;;;;;;19.77;16.52;;;;;;;4.64;79.42;102275.75;4927829;29;20134;-82
2021/12/31 08:47:34;;;;;;;17.45;14.88;;;;;;;4.79;79.81;102295.34;4943750;29;20166;-81
2021/12/31 08:50:01;;;;;;;17.08;15.23;;;;;;;4.60;79.37;102242.56;4928160;29;20116;-82
2021/12/31 08:52:27;;;;;;;14.38;13.07;;;;;;;4.84;79.27;102270.56;4932104;29;20052;-83
2021/12/31 08:54:54;;;;;;;15.05;13.45;;;;;;;4.90;79.05;102267.72;4931579;29;20061;-82
2021/12/31 08:57:23;;;;;;;14.27;12.88;;;;;;;5.09;78.75;102288.03;4931587;29;20278;-83
2021/12/31 08:59:50;;;;;;;14.30;12.98;;;;;;;4.65;78.29;102201.16;4931338;29;20055;-83
2021/12/31 09:02:16;;;;;;;15.90;14.27;;;;;;;4.95;78.00;102238.56;4932808;29;20060;-84
2021/12/31 09:04:43;;;;;;;15.18;13.80;;;;;;;5.28;78.03;102296.09;4947204;29;20308;-82
2021/12/31 09:07:09;;;;;;;14.95;13.45;;;;;;;5.15;78.29;102269.38;4933604;29;20074;-84
2021/12/31 09:09:36;;;;;;;15.23;13.73;;;;;;;5.02;77.89;102236.56;4941746;29;20128;-84
2021/12/31 09:12:03;;;;;;;15.63;13.98;;;;;;;4.91;78.37;102219.41;4931144;29;20487;-82
2021/12/31 09:14:30;;;;;;;14.93;13.48;;;;;;;5.00;77.94;102233.13;4947430;29;20055;-84
2021/12/31 09:16:58;;;;;;;16.25;14.52;;;;;;;5.47;78.14;102301.47;4932817;29;20051;-82
2021/12/31 09:19:29;;;;;;;16.52;14.90;;;;;;;5.39;77.53;102279.84;4930615;29;20044;-83
2021/12/31 09:21:57;;;;;;;15.45;13.90;;;;;;;5.54;77.03;102297.69;4930576;29;20056;-83
2021/12/31 09:24:26;;;;;;;15.48;14.05;;;;;;;5.69;77.21;102304.94;4932966;29;20062;-83
2021/12/31 09:26:53;;;;;;;16.30;14.15;;;;;;;5.56;76.87;102285.31;4929993;29;20519;-83
2021/12/31 09:29:22;;;;;;;16.30;14.70;;;;;;;5.21;76.53;102221.72;4931279;29;20070;-84
2021/12/31 09:31:50;;;;;;;15.00;13.50;;;;;;;5.76;77.00;102303.78;4931889;29;20175;-83
2021/12/31 09:34:17;;;;;;;15.65;14.02;;;;;;;5.63;77.07;102264.81;4930239;29;20062;-84
2021/12/31 09:36:44;;;;;;;14.73;13.15;;;;;;;5.57;77.32;102250.97;4931076;29;20056;-84
2021/12/31 09:39:11;;;;;;;16.80;14.45;;;;;;;5.78;76.85;102274.72;4931377;29;20047;-84
2021/12/31 09:41:43;;;;;;;13.90;12.50;;;;;;;5.95;76.72;102300.41;4931466;29;20134;-84
2021/12/31 09:44:14;;;;;;;14.55;13.05;;;;;;;5.73;76.35;102251.19;4930179;29;20696;-82
2021/12/31 09:46:42;;;;;;;15.38;13.98;;;;;;;6.06;76.86;102286.75;4930666;29;20638;-82
2021/12/31 09:49:10;;;;;;;15.45;13.95;;;;;;;6.11;76.58;102284.78;4931369;29;20059;-82
2021/12/31 09:51:41;;;;;;;14.50;13.10;;;;;;;6.15;76.97;102279.31;4930543;29;20054;-79
2021/12/31 09:54:09;;;;;;;14.95;13.55;;;;;;;5.92;76.47;102216.13;4930804;29;20320;-79
2021/12/31 09:56:40;;;;;;;15.40;13.43;;;;;;;6.25;76.26;102252.53;4930315;29;20051;-82
2021/12/31 09:59:08;;;;;;;14.52;13.10;;;;;;;5.97;75.61;102199.25;4931247;29;20055;-83
2021/12/31 10:01:50;;;;;;;13.70;12.30;;;;;;;6.33;76.19;102263.59;4930838;29;20063;-83
2021/12/31 10:04:22;;;;;;;14.75;13.30;;;;;;;6.24;75.51;102221.78;4929714;29;20134;-83
2021/12/31 10:07:08;;;;;;;13.50;12.30;;;;;;;6.51;75.56;102264.56;4944480;29;20048;-83
2021/12/31 10:09:38;;;;;;;14.00;12.70;;;;;;;6.49;75.91;102283.09;4930005;29;20382;-83
2021/12/31 10:12:11;;;;;;;13.90;12.60;;;;;;;6.59;75.38;102279.09;4946698;29;20102;-82
2021/12/31 10:14:40;;;;;;;13.90;12.52;;;;;;;6.35;75.45;102227.44;4950732;29;20056;-83
2021/12/31 10:17:10;;;;;;;14.43;13.02;;;;;;;6.62;75.45;102263.13;4941488;29;20223;-85
2021/12/31 10:19:55;;;;;;;13.63;12.35;;;;;;;6.69;75.38;102273.41;4968175;28;20040;-85
2021/12/31 10:22:21;;;;;;;14.45;13.13;;;;;;;6.69;75.21;102257.56;4961236;29;20476;-83
2021/12/31 10:24:48;;;;;;;14.13;12.82;;;;;;;6.82;75.43;102269.25;4932317;29;20044;-83
2021/12/31 10:27:19;;;;;;;14.90;13.43;;;;;;;6.63;76.02;102245.53;4932136;29;20067;-85
2021/12/31 10:29:52;;;;;;;15.48;13.98;;;;;;;6.80;76.10;102276.41;4947107;29;20286;-84
2021/12/31 10:32:20;;;;;;;15.38;13.75;;;;;;;6.37;75.69;102202.72;4947920;29;20066;-83
2021/12/31 10:34:47;;;;;;;16.73;13.90;;;;;;;6.74;75.84;102252.94;4931567;29;20083;-84
2021/12/31 10:37:17;;;;;;;16.10;14.60;;;;;;;6.34;75.44;102162.44;4947153;29;20142;-83
2021/12/31 10:39:45;;;;;;;15.82;14.27;;;;;;;6.41;75.25;102164.72;4930776;29;20138;-82
2021/12/31 10:42:14;;;;;;;14.07;12.85;;;;;;;7.07;75.35;102258.41;4930220;29;20488;-82
2021/12/31 10:44:44;;;;;;;14.38;12.98;;;;;;;7.07;75.44;102259.28;4928993;29;20507;-84
2021/12/31 10:47:13;;;;;;;15.55;14.02;;;;;;;7.13;75.64;102262.53;4930748;29;20404;-83
2021/12/31 10:50:03;;;;;;;16.33;14.88;;;;;;;7.12;75.61;102253.78;4945667;29;20058;-83
2021/12/31 10:52:46;;;;;;;14.25;13.00;;;;;;;6.82;75.51;102190.94;4930293;29;20138;-81
2021/12/31 10:55:24;;;;;;;15.80;14.20;;;;;;;6.88;75.91;102199.50;4930841;29;20138;-82
2021/12/31 10:58:03;;;;;;;15.68;14.07;;;;;;;7.23;75.25;102234.75;4930066;29;20047;-83
2021/12/31 11:00:36;;;;;;;16.45;14.88;;;;;;;7.36;75.56;102245.59;4930332;29;20063;-84
2021/12/31 11:03:04;;;;;;;16.02;14.43;;;;;;;7.53;75.81;102244.75;4926814;29;20150;-85
2021/12/31 11:05:31;;;;;;;16.02;14.48;;;;;;;7.40;74.99;102192.53;4927247;29;20147;-83
2021/12/31 11:08:00;;;;;;;15.73;14.20;;;;;;;7.87;74.32;102244.75;4928346;29;20079;-83
2021/12/31 11:10:36;;;;;;;17.05;15.48;;;;;;;7.92;73.72;102226.84;4928380;29;20058;-83
2021/12/31 11:13:11;;;;;;;16.70;15.10;;;;;;;7.95;73.46;102211.75;4929574;29;20044;-85
2021/12/31 11:15:40;;;;;;;17.75;16.15;;;;;;;7.78;73.54;102191.50;4929362;29;20062;-84
2021/12/31 11:18:08;;;;;;;17.55;15.80;;;;;;;8.09;73.26;102225.13;4942518;29;20421;-84
2021/12/31 11:20:35;;;;;;;17.45;15.85;;;;;;;8.04;73.59;102222.72;4929184;29;20111;-83
2021/12/31 11:23:02;;;;;;;16.92;15.23;;;;;;;8.02;73.40;102211.34;4944008;29;20135;-84
2021/12/31 11:26:00;;;;;;;17.17;15.68;;;;;;;7.25;73.65;102100.81;4929042;29;20048;-84